createdAt,value
2022-12-27T00:00:28.957Z,8.70
2022-12-27T00:02:58.964Z,8.70
2022-12-27T00:05:28.825Z,8.70
2022-12-27T00:07:58.975Z,8.70
2022-12-27T00:10:28.971Z,8.70
2022-12-27T00:12:58.885Z,8.60
2022-12-27T00:15:28.781Z,8.60
2022-12-27T00:17:58.840Z,8.70
2022-12-27T00:20:28.953Z,8.60
2022-12-27T00:22:58.863Z,8.70
2022-12-27T00:25:28.760Z,8.70
2022-12-27T00:27:58.760Z,8.60
2022-12-27T00:30:28.749Z,8.60
2022-12-27T00:32:58.712Z,8.50
2022-12-27T00:35:28.634Z,8.50
2022-12-27T00:37:58.660Z,8.50
2022-12-27T00:40:28.572Z,8.50
2022-12-27T00:42:58.441Z,8.50
2022-12-27T00:45:28.572Z,8.40
2022-12-27T00:47:58.506Z,8.40
2022-12-27T00:50:28.549Z,8.40
2022-12-27T00:52:59.163Z,8.40
2022-12-27T00:55:29.209Z,8.40
2022-12-27T00:57:59.154Z,8.30
2022-12-27T01:00:29.084Z,8.40
2022-12-27T01:02:59.092Z,8.40
2022-12-27T01:05:29.082Z,8.30
2022-12-27T01:07:58.971Z,8.40
2022-12-27T01:10:28.834Z,8.30
2022-12-27T01:12:59.575Z,8.30
2022-12-27T01:15:29.498Z,8.30
2022-12-27T01:17:59.390Z,8.30
2022-12-27T01:20:29.290Z,8.30
2022-12-27T01:22:59.106Z,8.30
2022-12-27T01:25:29.064Z,8.30
2022-12-27T01:27:59.129Z,8.30
2022-12-27T01:30:29.027Z,8.40
2022-12-27T01:32:58.947Z,8.40
2022-12-27T01:35:28.790Z,8.40
2022-12-27T01:37:58.754Z,8.40
2022-12-27T01:40:28.951Z,8.40
2022-12-27T01:42:59.568Z,8.40
2022-12-27T01:45:31.859Z,8.40
2022-12-27T01:48:15.427Z,8.50
2022-12-27T01:50:51.384Z,8.50
2022-12-27T01:53:27.834Z,8.60
2022-12-27T01:56:14.540Z,8.60
2022-12-27T01:58:55.080Z,8.70
2022-12-27T02:01:30.300Z,8.90
2022-12-27T02:04:10.026Z,9.00
2022-12-27T02:06:42.109Z,9.10
2022-12-27T02:09:44.848Z,9.10
2022-12-27T02:12:15.752Z,9.20
2022-12-27T02:14:47.216Z,9.30
2022-12-27T02:17:29.415Z,9.50
2022-12-27T02:20:19.114Z,9.60
2022-12-27T02:23:45.050Z,9.70
2022-12-27T02:26:35.532Z,9.90
2022-12-27T02:29:35.983Z,10.00
2022-12-27T02:32:22.741Z,10.20
2022-12-27T02:35:11.891Z,10.30
2022-12-27T02:37:53.966Z,10.30
2022-12-27T02:40:36.030Z,10.30
2022-12-27T02:43:16.232Z,10.30
2022-12-27T02:46:06.415Z,10.30
2022-12-27T02:48:46.639Z,10.40
2022-12-27T02:51:56.716Z,10.60
2022-12-27T02:54:57.744Z,10.60
2022-12-27T02:57:37.667Z,10.70
2022-12-27T03:00:37.313Z,10.80
2022-12-27T03:03:44.008Z,10.80
2022-12-27T03:06:43.180Z,10.90
2022-12-27T03:10:07.826Z,11.00
2022-12-27T03:13:08.063Z,11.10
2022-12-27T03:16:03.432Z,11.20
2022-12-27T03:19:09.725Z,11.40
2022-12-27T03:21:58.585Z,11.50
2022-12-27T03:24:48.917Z,11.50
2022-12-27T03:27:29.962Z,11.70
2022-12-27T03:30:19.270Z,11.70
2022-12-27T03:33:09.308Z,11.80
2022-12-27T03:36:19.555Z,11.90
2022-12-27T03:39:20.454Z,12.10
2022-12-27T03:42:09.944Z,12.20
2022-12-27T03:44:40.185Z,12.40
2022-12-27T03:47:25.381Z,12.50
2022-12-27T03:50:15.779Z,12.50
2022-12-27T03:53:01.429Z,12.50
2022-12-27T03:55:33.525Z,12.50
2022-12-27T03:58:04.716Z,12.50
2022-12-27T04:00:34.870Z,12.50
2022-12-27T04:03:05.038Z,12.60
2022-12-27T04:05:35.094Z,12.70
2022-12-27T04:08:21.851Z,12.80
2022-12-27T04:11:01.878Z,12.90
2022-12-27T04:13:42.203Z,13.10
2022-12-27T04:16:32.319Z,13.20
2022-12-27T04:19:12.647Z,13.40
2022-12-27T04:21:52.649Z,13.50
2022-12-27T04:24:32.933Z,13.60
2022-12-27T04:27:23.053Z,13.70
2022-12-27T04:30:03.404Z,13.80
2022-12-27T04:32:43.368Z,13.70
2022-12-27T04:35:13.347Z,13.80
2022-12-27T04:37:43.524Z,14.00
2022-12-27T04:40:24.142Z,13.80
2022-12-27T04:43:04.073Z,13.90
2022-12-27T04:45:45.244Z,14.00
2022-12-27T04:48:34.412Z,14.10
2022-12-27T04:51:14.754Z,14.20
2022-12-27T04:53:54.723Z,14.20
2022-12-27T04:56:24.644Z,14.30
2022-12-27T04:59:05.094Z,14.30
2022-12-27T05:01:45.762Z,14.30
2022-12-27T05:04:15.962Z,14.30
2022-12-27T05:06:45.994Z,14.40
2022-12-27T05:09:25.931Z,14.40
2022-12-27T05:12:15.269Z,14.50
2022-12-27T06:02:44.764Z,16.20
2022-12-27T06:05:16.122Z,16.30
2022-12-27T07:34:39.320Z,17.90
2022-12-27T07:40:51.320Z,18.10
2022-12-27T07:43:21.400Z,18.20
2022-12-27T08:20:01.226Z,18.10
2022-12-27T08:22:37.345Z,18.10
2022-12-27T08:25:07.511Z,18.10
2022-12-27T08:27:38.332Z,18.00
2022-12-27T08:40:36.994Z,18.00
2022-12-27T08:43:06.913Z,18.00
2022-12-27T08:52:40.416Z,18.00
2022-12-27T08:55:10.806Z,18.10
2022-12-27T08:57:41.383Z,18.10
2022-12-27T10:02:38.171Z,17.50
2022-12-27T11:48:04.646Z,15.20
2022-12-27T11:51:13.231Z,15.10
2022-12-27T11:54:13.502Z,15.00
2022-12-27T11:57:02.222Z,15.00
2022-12-27T11:59:53.663Z,14.90
2022-12-27T12:02:55.195Z,14.90
2022-12-27T12:05:54.174Z,14.80
2022-12-27T12:08:54.984Z,14.70
2022-12-27T12:11:34.340Z,14.60
2022-12-27T12:14:36.280Z,14.50
2022-12-27T12:17:18.972Z,14.50
2022-12-27T12:20:13.935Z,14.50
2022-12-27T12:23:22.604Z,14.50
2022-12-27T12:26:13.937Z,14.40
2022-12-27T12:29:15.236Z,14.40
2022-12-27T12:32:16.375Z,14.40
2022-12-27T12:35:05.756Z,14.30
2022-12-27T12:37:56.243Z,14.20
2022-12-27T12:40:53.827Z,14.20
2022-12-27T12:43:54.152Z,14.10
2022-12-27T12:46:56.767Z,14.10
2022-12-27T12:49:59.256Z,14.10
2022-12-27T12:53:06.933Z,14.10
2022-12-27T12:56:03.906Z,14.00
2022-12-27T12:59:04.224Z,14.00
2022-12-27T13:02:06.604Z,14.00
2022-12-27T13:04:57.521Z,13.90
2022-12-27T13:07:42.560Z,13.90
2022-12-27T13:10:51.230Z,13.90
2022-12-27T13:13:47.286Z,13.80
2022-12-27T13:16:48.588Z,13.90
2022-12-27T13:19:50.073Z,13.80
2022-12-27T13:22:48.927Z,13.70
2022-12-27T13:25:39.442Z,13.70
2022-12-27T13:28:38.865Z,13.70
2022-12-27T13:31:39.915Z,13.60
2022-12-27T13:34:31.620Z,13.60
2022-12-27T13:37:29.797Z,13.50
2022-12-27T13:40:29.709Z,13.50
2022-12-27T13:43:39.286Z,13.50
2022-12-27T13:46:28.061Z,13.50
2022-12-27T13:49:36.749Z,13.40
2022-12-27T13:52:34.593Z,13.30
2022-12-27T13:55:30.734Z,13.30
2022-12-27T13:58:31.306Z,13.30
2022-12-27T14:01:40.158Z,13.20
2022-12-27T14:04:41.476Z,13.20
2022-12-27T14:07:29.218Z,13.20
2022-12-27T14:10:28.868Z,13.10
2022-12-27T14:13:02.378Z,13.10
2022-12-27T14:16:02.398Z,13.10
2022-12-27T14:19:02.397Z,13.10
2022-12-27T14:22:00.809Z,13.00
2022-12-27T14:24:58.097Z,12.90
2022-12-27T14:28:08.297Z,12.80
2022-12-27T14:31:16.368Z,12.80
2022-12-27T14:34:11.872Z,12.70
2022-12-27T14:37:13.267Z,12.70
2022-12-27T14:40:13.382Z,12.60
2022-12-27T14:43:13.624Z,12.60
2022-12-27T14:46:13.891Z,12.60
2022-12-27T14:49:13.836Z,12.60
2022-12-27T14:52:16.138Z,12.60
2022-12-27T14:55:24.242Z,12.50
2022-12-27T14:58:24.510Z,12.40
2022-12-27T15:01:23.133Z,12.30
2022-12-27T15:04:15.498Z,12.30
2022-12-27T15:07:21.023Z,12.30
2022-12-27T15:10:06.936Z,12.30
2022-12-27T15:13:16.246Z,12.30
2022-12-27T15:16:03.475Z,12.40
2022-12-27T15:18:59.163Z,12.30
2022-12-27T15:22:05.824Z,12.20
2022-12-27T15:24:58.401Z,12.20
2022-12-27T15:27:40.073Z,12.20
2022-12-27T15:30:45.591Z,12.20
2022-12-27T15:33:46.528Z,12.20
2022-12-27T15:36:18.667Z,12.10
2022-12-27T15:38:54.330Z,12.10
2022-12-27T15:41:48.523Z,12.10
2022-12-27T15:44:44.326Z,12.00
2022-12-27T15:47:48.397Z,12.00
2022-12-27T15:50:31.264Z,12.00
2022-12-27T15:53:27.836Z,12.00
2022-12-27T15:56:17.259Z,12.00
2022-12-27T15:58:47.717Z,11.80
2022-12-27T16:01:30.134Z,11.80
2022-12-27T16:04:00.597Z,11.80
2022-12-27T16:06:51.505Z,11.70
2022-12-27T16:09:34.702Z,11.60
2022-12-27T16:12:15.582Z,11.60
2022-12-27T16:14:46.725Z,11.60
2022-12-27T16:17:41.672Z,11.50
2022-12-27T16:20:22.519Z,11.50
2022-12-27T16:22:54.512Z,11.40
2022-12-27T16:25:37.457Z,11.40
2022-12-27T16:28:28.458Z,11.50
2022-12-27T16:31:01.986Z,11.40
2022-12-27T16:33:39.177Z,11.30
2022-12-27T16:36:40.508Z,11.30
2022-12-27T16:39:35.538Z,11.30
2022-12-27T16:42:09.185Z,11.20
2022-12-27T16:45:17.883Z,11.20
2022-12-27T16:48:19.398Z,11.20
2022-12-27T16:51:15.634Z,11.10
2022-12-27T16:54:16.678Z,11.10
2022-12-27T16:56:49.761Z,11.10
2022-12-27T16:59:51.952Z,11.10
2022-12-27T17:02:35.325Z,11.00
2022-12-27T17:05:06.981Z,11.10
2022-12-27T17:07:58.898Z,11.00
2022-12-27T17:10:57.196Z,10.90
2022-12-27T17:13:51.730Z,10.90
2022-12-27T17:16:30.881Z,10.90
2022-12-27T17:19:17.616Z,10.90
2022-12-27T17:21:49.775Z,10.80
2022-12-27T17:24:23.738Z,10.90
2022-12-27T17:27:08.731Z,10.80
2022-12-27T17:30:03.546Z,10.80
2022-12-27T17:33:04.578Z,10.70
2022-12-27T17:36:03.995Z,10.70
2022-12-27T17:39:06.615Z,10.60
2022-12-27T17:42:23.685Z,10.60
2022-12-27T17:45:33.148Z,10.60
2022-12-27T17:48:27.000Z,10.60
2022-12-27T17:51:18.557Z,10.50
2022-12-27T17:54:04.382Z,10.40
2022-12-27T17:57:04.641Z,10.40
2022-12-27T17:59:36.638Z,10.40
2022-12-27T18:02:19.322Z,10.40
2022-12-27T18:04:53.388Z,10.40
2022-12-27T18:07:34.979Z,10.50
2022-12-27T18:10:09.769Z,10.50
2022-12-27T18:12:43.591Z,10.50
2022-12-27T18:15:23.052Z,10.50
2022-12-27T18:17:57.638Z,10.60
2022-12-27T18:20:42.469Z,10.50
2022-12-27T18:23:20.218Z,10.30
2022-12-27T18:25:56.498Z,10.20
2022-12-27T18:28:33.355Z,10.20
2022-12-27T18:31:19.330Z,10.20
2022-12-27T18:33:57.345Z,10.10
2022-12-27T18:36:42.711Z,10.10
2022-12-27T18:39:42.388Z,10.20
2022-12-27T18:42:44.848Z,10.10
2022-12-27T18:45:31.628Z,10.00
2022-12-27T18:48:08.864Z,10.00
2022-12-27T18:50:55.353Z,10.00
2022-12-27T18:53:38.580Z,9.90
2022-12-27T18:56:25.824Z,9.90
2022-12-27T18:59:34.483Z,9.90
2022-12-27T19:02:28.622Z,10.00
2022-12-27T19:05:30.379Z,10.00
2022-12-27T19:08:12.985Z,9.90
2022-12-27T19:10:51.558Z,9.80
2022-12-27T19:13:32.830Z,9.80
2022-12-27T19:16:03.083Z,9.70
2022-12-27T19:18:39.988Z,9.70
2022-12-27T19:21:10.005Z,9.70
2022-12-27T19:23:50.725Z,9.70
2022-12-27T19:26:34.567Z,9.70
2022-12-27T19:29:11.092Z,9.60
2022-12-27T19:31:44.777Z,9.60
2022-12-27T19:34:19.484Z,9.60
2022-12-27T19:36:50.552Z,9.60
2022-12-27T19:39:24.939Z,9.60
2022-12-27T19:42:00.837Z,9.50
2022-12-27T19:44:32.996Z,9.50
2022-12-27T19:47:03.174Z,9.50
2022-12-27T19:49:48.207Z,9.50
2022-12-27T19:52:23.277Z,9.50
2022-12-27T19:54:58.804Z,9.40
2022-12-27T19:57:29.066Z,9.40
2022-12-27T19:59:59.228Z,9.40
2022-12-27T20:02:29.754Z,9.50
2022-12-27T20:04:59.806Z,9.50
2022-12-27T20:07:29.826Z,9.50
2022-12-27T20:09:59.811Z,9.60
2022-12-27T20:12:29.741Z,9.60
2022-12-27T20:14:59.818Z,9.60
2022-12-27T20:17:35.546Z,9.60
2022-12-27T20:20:08.958Z,9.60
2022-12-27T20:22:38.888Z,9.50
2022-12-27T20:25:09.690Z,9.40
2022-12-27T20:27:39.751Z,9.30
2022-12-27T20:30:10.323Z,9.30
2022-12-27T20:32:40.510Z,9.30
2022-12-27T20:35:10.922Z,9.30
2022-12-27T20:37:40.861Z,9.30
2022-12-27T20:40:12.846Z,9.20
2022-12-27T20:42:42.789Z,9.10
2022-12-27T20:45:19.621Z,9.10
2022-12-27T20:47:49.683Z,9.10
2022-12-27T20:50:19.943Z,9.20
2022-12-27T20:52:49.963Z,9.20
2022-12-27T20:55:20.039Z,9.10
2022-12-27T20:57:49.899Z,9.20
2022-12-27T21:00:20.768Z,9.10
2022-12-27T21:02:50.228Z,9.10
2022-12-27T21:05:20.401Z,9.00
2022-12-27T21:07:50.466Z,9.00
2022-12-27T21:10:20.528Z,9.00
2022-12-27T21:12:50.493Z,9.00
2022-12-27T21:15:20.550Z,8.90
2022-12-27T21:17:50.455Z,8.80
2022-12-27T21:20:20.407Z,8.90
2022-12-27T21:22:50.303Z,8.80
2022-12-27T21:25:20.239Z,8.90
2022-12-27T21:27:50.480Z,8.80
2022-12-27T21:30:20.614Z,8.80
2022-12-27T21:32:50.796Z,8.80
2022-12-27T21:35:20.624Z,8.80
2022-12-27T21:37:51.028Z,8.80
2022-12-27T21:40:20.908Z,8.80
2022-12-27T21:42:52.021Z,8.80
2022-12-27T21:45:21.939Z,8.70
2022-12-27T21:47:53.362Z,8.70
2022-12-27T21:50:23.247Z,8.70
2022-12-27T21:52:53.216Z,8.70
2022-12-27T21:55:23.254Z,8.60
2022-12-27T21:57:53.166Z,8.60
2022-12-27T22:00:23.120Z,8.60
2022-12-27T22:02:53.948Z,8.70
2022-12-27T22:05:23.315Z,8.60
2022-12-27T22:07:56.161Z,8.70
2022-12-27T22:10:26.747Z,8.70
2022-12-27T22:12:56.642Z,8.60
2022-12-27T22:15:26.578Z,8.50
2022-12-27T22:17:57.356Z,8.50
2022-12-27T22:20:27.343Z,8.40
2022-12-27T22:22:57.223Z,8.40
2022-12-27T22:25:27.127Z,8.40
2022-12-27T22:27:57.233Z,8.40
2022-12-27T22:30:27.201Z,8.40
2022-12-27T22:32:57.399Z,8.40
2022-12-27T22:35:27.955Z,8.40
2022-12-27T22:37:57.851Z,8.40
2022-12-27T22:40:35.626Z,8.40
2022-12-27T22:43:16.106Z,8.30
2022-12-27T22:45:51.961Z,8.30
2022-12-27T22:48:23.628Z,8.40
2022-12-27T22:50:53.703Z,8.40
2022-12-27T22:53:23.668Z,8.40
2022-12-27T22:55:53.607Z,8.40
2022-12-27T22:58:23.681Z,8.30
2022-12-27T23:00:53.606Z,8.20
2022-12-27T23:03:23.639Z,8.20
2022-12-27T23:06:09.325Z,8.20
2022-12-27T23:08:39.390Z,8.20
2022-12-27T23:11:13.604Z,8.20
2022-12-27T23:13:43.880Z,8.10
2022-12-27T23:16:13.913Z,8.10
2022-12-27T23:18:44.075Z,8.10
2022-12-27T23:21:21.223Z,8.10
2022-12-27T23:23:54.902Z,8.10
2022-12-27T23:26:25.847Z,8.20
2022-12-27T23:28:56.130Z,8.10
2022-12-27T23:31:27.512Z,8.00
2022-12-27T23:33:57.862Z,8.00
2022-12-27T23:36:27.821Z,8.00
2022-12-27T23:38:58.311Z,8.00
2022-12-27T23:41:29.181Z,8.00
2022-12-27T23:44:01.262Z,8.00
2022-12-27T23:46:35.142Z,7.90
2022-12-27T23:49:10.793Z,8.00
2022-12-27T23:51:40.759Z,8.00
2022-12-27T23:54:10.634Z,7.90
2022-12-27T23:56:40.531Z,7.90
2022-12-27T23:59:11.240Z,7.90
